Time;durP1;ratioP1;P1;durP2;ratioP2;P2;SDS_P1;SDS_P2;PMS_P1;PMS_P2;Temp;Humidity;BMP_temperature;BMP_pressure;BME280_temperature;BME280_humidity;BME280_pressure;Samples;Min_cycle;Max_cycle;Signal;HPM_P1;HPM_P2
2021/09/13 00:00:53;;;;;;;891.88;793.83;;;;;;;;;;5026557;28;20030;-76
2021/09/13 00:03:18;;;;;;;900.35;802.17;;;;;;;;;;5019344;28;20037;-77
2021/09/13 00:05:45;;;;;;;892.00;794.25;;;;;;;;;;5020900;28;20060;-77
2021/09/13 00:08:11;;;;;;;890.25;792.45;;;;;;;;;;5029482;28;20501;-76
2021/09/13 00:10:37;;;;;;;885.97;788.50;;;;;;;;;;5028554;28;20036;-77
2021/09/13 00:13:03;;;;;;;878.83;780.83;;;;;;;;;;5025570;28;20117;-76
2021/09/13 00:15:29;;;;;;;881.40;783.85;;;;;;;;;;5018540;28;20499;-77
2021/09/13 00:17:55;;;;;;;878.92;781.17;;;;;;;;;;5028728;28;20112;-76
2021/09/13 00:20:21;;;;;;;885.55;787.95;;;;;;;;;;5028099;28;20021;-76
2021/09/13 00:22:47;;;;;;;887.28;789.55;;;;;;;;;;5011179;28;20557;-77
2021/09/13 00:25:12;;;;;;;890.47;792.78;;;;;;;;;;5019019;28;20110;-77
2021/09/13 00:27:38;;;;;;;884.58;787.15;;;;;;;;;;5014975;28;20033;-77
2021/09/13 00:30:06;;;;;;;891.38;793.65;;;;;;;;;;5015001;28;20422;-77
2021/09/13 00:32:33;;;;;;;895.42;797.22;;;;;;;;;;5020739;28;20033;-77
2021/09/13 00:34:59;;;;;;;889.28;791.33;;;;;;;;;;5009516;28;20218;-77
2021/09/13 00:37:25;;;;;;;884.38;786.65;;;;;;;;;;5028230;28;20546;-77
2021/09/13 00:39:51;;;;;;;886.50;788.88;;;;;;;;;;5028785;28;20390;-77
2021/09/13 00:42:17;;;;;;;891.65;793.88;;;;;;;;;;5018261;28;20505;-77
2021/09/13 00:44:43;;;;;;;886.58;788.85;;;;;;;;;;5029009;28;20080;-77
2021/09/13 00:47:09;;;;;;;886.63;789.10;;;;;;;;;;5025308;28;20528;-77
2021/09/13 00:49:35;;;;;;;891.45;793.65;;;;;;;;;;5028059;28;20079;-77
2021/09/13 00:52:01;;;;;;;890.85;793.05;;;;;;;;;;5028909;28;20025;-77
2021/09/13 00:54:28;;;;;;;898.10;799.92;;;;;;;;;;5020163;28;20030;-77
2021/09/13 00:56:54;;;;;;;881.42;784.15;;;;;;;;;;5016540;28;20447;-77
2021/09/13 00:59:20;;;;;;;884.92;787.40;;;;;;;;;;5011066;28;20029;-77
2021/09/13 01:01:47;;;;;;;885.00;787.38;;;;;;;;;;5010418;28;20029;-77
2021/09/13 01:04:13;;;;;;;878.28;780.47;;;;;;;;;;5026533;28;20057;-77
2021/09/13 01:06:39;;;;;;;884.75;787.33;;;;;;;;;;5020308;28;20060;-77
2021/09/13 01:09:05;;;;;;;878.50;781.10;;;;;;;;;;5013459;28;20038;-77
2021/09/13 01:11:31;;;;;;;877.63;779.13;;;;;;;;;;5028039;28;20021;-77
2021/09/13 01:13:57;;;;;;;882.63;784.63;;;;;;;;;;5024286;28;20029;-77
2021/09/13 01:16:23;;;;;;;877.00;779.28;;;;;;;;;;5017395;28;20367;-78
2021/09/13 01:18:48;;;;;;;878.67;781.25;;;;;;;;;;5027695;28;20485;-78
2021/09/13 01:21:15;;;;;;;877.50;780.15;;;;;;;;;;5018089;28;20025;-77
2021/09/13 01:23:41;;;;;;;876.13;776.53;;;;;;;;;;5029596;28;20119;-78
2021/09/13 01:26:07;;;;;;;876.28;776.55;;;;;;;;;;5025920;28;20105;-78
2021/09/13 01:28:33;;;;;;;874.22;769.55;;;;;;;;;;5018841;28;20033;-78
2021/09/13 01:30:59;;;;;;;872.25;769.15;;;;;;;;;;5004845;28;20064;-78
2021/09/13 01:33:25;;;;;;;878.63;777.97;;;;;;;;;;5009920;28;20033;-78
2021/09/13 01:35:52;;;;;;;877.70;779.33;;;;;;;;;;5002399;28;20551;-78
2021/09/13 01:38:20;;;;;;;870.30;769.38;;;;;;;;;;5017303;28;20382;-78
2021/09/13 01:40:50;;;;;;;872.25;772.03;;;;;;;;;;4998440;28;20025;-78
2021/09/13 01:43:16;;;;;;;873.38;770.35;;;;;;;;;;5027853;28;20092;-78
2021/09/13 01:45:42;;;;;;;873.42;765.92;;;;;;;;;;5027663;28;20093;-78
2021/09/13 01:48:08;;;;;;;878.05;780.90;;;;;;;;;;5024701;28;20116;-78
2021/09/13 01:50:34;;;;;;;873.38;772.65;;;;;;;;;;5028836;28;20029;-78
2021/09/13 01:53:00;;;;;;;875.42;777.08;;;;;;;;;;5027069;28;20033;-78
2021/09/13 01:55:26;;;;;;;878.33;778.97;;;;;;;;;;5009485;28;20033;-78
2021/09/13 01:57:52;;;;;;;881.55;783.47;;;;;;;;;;5022483;28;20052;-78
2021/09/13 02:00:18;;;;;;;879.75;782.42;;;;;;;;;;5027322;28;20481;-78
2021/09/13 02:02:44;;;;;;;881.72;782.47;;;;;;;;;;5024927;28;20499;-78
2021/09/13 02:05:10;;;;;;;878.80;780.85;;;;;;;;;;5011540;28;20080;-78
2021/09/13 02:07:37;;;;;;;882.67;785.20;;;;;;;;;;5010844;28;20067;-78
2021/09/13 02:10:04;;;;;;;884.35;786.85;;;;;;;;;;5004528;28;20484;-79
2021/09/13 02:12:30;;;;;;;887.95;790.25;;;;;;;;;;5027265;28;20671;-78
2021/09/13 02:14:56;;;;;;;885.30;787.90;;;;;;;;;;5007072;28;20017;-78
2021/09/13 02:17:22;;;;;;;886.75;789.40;;;;;;;;;;5010954;28;20036;-78
2021/09/13 02:19:48;;;;;;;885.05;787.83;;;;;;;;;;5035990;28;20026;-79
2021/09/13 02:22:15;;;;;;;885.08;787.63;;;;;;;;;;5011172;28;20025;-78
2021/09/13 02:24:41;;;;;;;892.92;795.20;;;;;;;;;;5012692;28;20108;-78
2021/09/13 02:27:07;;;;;;;889.38;792.00;;;;;;;;;;5028457;28;20024;-79
2021/09/13 02:29:33;;;;;;;883.47;785.85;;;;;;;;;;5012447;28;20033;-79
2021/09/13 02:31:59;;;;;;;882.55;785.25;;;;;;;;;;5009079;28;20026;-79
2021/09/13 02:34:25;;;;;;;881.65;784.25;;;;;;;;;;5026557;28;20029;-79
2021/09/13 02:36:51;;;;;;;872.85;769.50;;;;;;;;;;5011062;28;20495;-79
2021/09/13 02:39:17;;;;;;;872.15;769.40;;;;;;;;;;5019083;28;20528;-79
2021/09/13 02:41:43;;;;;;;873.47;771.25;;;;;;;;;;5032828;28;20040;-79
2021/09/13 02:44:08;;;;;;;870.88;770.58;;;;;;;;;;5011800;28;20075;-79
2021/09/13 02:46:34;;;;;;;874.63;774.25;;;;;;;;;;5013787;28;20041;-79
2021/09/13 02:49:00;;;;;;;878.17;780.45;;;;;;;;;;5009462;28;20030;-79
2021/09/13 02:51:26;;;;;;;871.05;766.45;;;;;;;;;;5016447;28;20048;-79
2021/09/13 02:53:52;;;;;;;877.10;777.60;;;;;;;;;;5024334;28;20037;-79
2021/09/13 02:56:18;;;;;;;871.80;770.97;;;;;;;;;;5013636;28;20038;-80
2021/09/13 02:58:44;;;;;;;871.13;767.35;;;;;;;;;;5000950;28;20485;-79
2021/09/13 03:01:11;;;;;;;874.17;774.30;;;;;;;;;;5019989;28;20112;-80
2021/09/13 03:03:37;;;;;;;871.78;767.90;;;;;;;;;;5013374;28;20502;-79
2021/09/13 03:06:03;;;;;;;871.50;764.60;;;;;;;;;;5010050;28;20061;-79
2021/09/13 03:08:29;;;;;;;872.90;767.65;;;;;;;;;;5022347;28;20034;-79
2021/09/13 03:10:55;;;;;;;871.58;767.33;;;;;;;;;;5026071;28;20041;-80
2021/09/13 03:13:20;;;;;;;872.25;764.78;;;;;;;;;;5017422;28;20168;-79
2021/09/13 03:15:46;;;;;;;876.50;767.85;;;;;;;;;;5022781;28;20013;-79
2021/09/13 03:18:12;;;;;;;876.95;771.30;;;;;;;;;;5026280;28;20486;-79
2021/09/13 03:20:38;;;;;;;872.70;764.05;;;;;;;;;;5026266;28;20037;-79
2021/09/13 03:23:04;;;;;;;875.97;769.13;;;;;;;;;;5024182;28;20018;-80
2021/09/13 03:25:30;;;;;;;875.63;767.83;;;;;;;;;;5008963;28;20495;-80
2021/09/13 03:27:58;;;;;;;874.63;765.53;;;;;;;;;;5026721;28;20092;-79
2021/09/13 03:30:24;;;;;;;874.22;766.85;;;;;;;;;;5025807;28;20033;-80
2021/09/13 03:32:50;;;;;;;875.15;762.17;;;;;;;;;;5014247;28;20025;-79
2021/09/13 03:35:16;;;;;;;870.15;760.30;;;;;;;;;;5008565;28;20036;-79
2021/09/13 03:37:42;;;;;;;873.63;768.25;;;;;;;;;;5024341;28;20235;-80
2021/09/13 03:40:09;;;;;;;871.72;763.10;;;;;;;;;;5012080;28;20017;-79
2021/09/13 03:42:35;;;;;;;873.03;763.47;;;;;;;;;;5016651;28;20041;-80
2021/09/13 03:45:01;;;;;;;873.38;764.10;;;;;;;;;;5026382;28;20041;-79
2021/09/13 03:47:26;;;;;;;870.45;759.13;;;;;;;;;;5024830;28;20029;-80
2021/09/13 03:49:52;;;;;;;874.40;761.30;;;;;;;;;;5025919;28;20230;-80
2021/09/13 03:52:18;;;;;;;875.85;765.95;;;;;;;;;;5022800;28;20025;-80
2021/09/13 03:54:44;;;;;;;875.78;769.83;;;;;;;;;;5016345;28;20481;-80
2021/09/13 03:57:10;;;;;;;874.75;765.80;;;;;;;;;;5007950;28;20024;-80
2021/09/13 03:59:36;;;;;;;874.42;768.20;;;;;;;;;;5021203;28;20509;-79
2021/09/13 04:02:04;;;;;;;874.40;770.00;;;;;;;;;;5026991;28;20414;-80
2021/09/13 04:04:31;;;;;;;877.95;775.75;;;;;;;;;;5029713;28;20029;-80
2021/09/13 04:07:03;;;;;;;876.70;771.30;;;;;;;;;;5030002;28;20103;-80
2021/09/13 04:11:58;;;;;;;873.97;770.70;;;;;;;;;;5029417;28;20390;-79
2021/09/13 04:14:28;;;;;;;878.70;779.92;;;;;;;;;;5029606;28;20499;-80
2021/09/13 04:16:54;;;;;;;871.55;763.58;;;;;;;;;;5029748;28;20036;-80
2021/09/13 04:19:21;;;;;;;875.47;774.53;;;;;;;;;;5014339;28;20029;-79
2021/09/13 04:21:47;;;;;;;876.50;775.20;;;;;;;;;;5013862;28;20060;-80
2021/09/13 04:24:14;;;;;;;877.47;777.13;;;;;;;;;;5018100;28;20455;-80
2021/09/13 04:26:40;;;;;;;874.88;766.38;;;;;;;;;;5029480;28;20281;-80
2021/09/13 04:29:06;;;;;;;873.85;770.47;;;;;;;;;;5029906;28;20242;-79
2021/09/13 04:31:32;;;;;;;875.67;771.80;;;;;;;;;;5010442;28;20041;-79
2021/09/13 04:33:58;;;;;;;874.75;768.47;;;;;;;;;;5028816;28;20045;-80
2021/09/13 04:36:24;;;;;;;872.83;769.53;;;;;;;;;;5018435;28;20034;-80
2021/09/13 04:38:50;;;;;;;881.03;783.53;;;;;;;;;;5013099;28;20041;-79
2021/09/13 04:41:16;;;;;;;877.13;779.78;;;;;;;;;;5028013;28;20084;-79
2021/09/13 04:43:42;;;;;;;877.35;779.13;;;;;;;;;;5011479;28;20083;-80
2021/09/13 04:46:08;;;;;;;873.50;775.10;;;;;;;;;;5018532;28;20550;-80
2021/09/13 04:48:34;;;;;;;879.60;782.03;;;;;;;;;;5018689;28;20026;-80
2021/09/13 04:51:00;;;;;;;873.03;773.85;;;;;;;;;;5023079;28;20393;-80
2021/09/13 04:53:26;;;;;;;876.53;778.97;;;;;;;;;;5016134;28;20321;-79
2021/09/13 04:55:52;;;;;;;872.95;773.65;;;;;;;;;;5029132;28;20083;-80
2021/09/13 04:58:18;;;;;;;881.20;783.72;;;;;;;;;;5023997;28;20018;-80
2021/09/13 05:00:44;;;;;;;871.95;769.20;;;;;;;;;;5017406;28;20456;-79
2021/09/13 05:03:10;;;;;;;874.50;773.72;;;;;;;;;;5026967;28;20064;-80
2021/09/13 05:05:36;;;;;;;870.47;763.92;;;;;;;;;;5028135;28;20032;-80
2021/09/13 05:08:02;;;;;;;872.03;770.55;;;;;;;;;;5010422;28;20520;-80
2021/09/13 05:10:28;;;;;;;871.17;766.00;;;;;;;;;;5029138;28;20036;-80
2021/09/13 05:12:54;;;;;;;871.83;768.90;;;;;;;;;;5022380;28;20497;-80
2021/09/13 05:15:20;;;;;;;873.45;773.47;;;;;;;;;;5024074;28;20083;-80
2021/09/13 05:17:46;;;;;;;873.63;774.05;;;;;;;;;;5020665;28;20445;-80
2021/09/13 05:20:13;;;;;;;876.78;779.40;;;;;;;;;;5024745;28;20091;-80
2021/09/13 05:22:39;;;;;;;872.97;772.88;;;;;;;;;;5019798;28;20546;-80
2021/09/13 05:25:05;;;;;;;874.30;776.97;;;;;;;;;;5027804;28;20041;-79
2021/09/13 05:27:31;;;;;;;871.63;772.33;;;;;;;;;;5014489;28;20215;-80
2021/09/13 05:29:57;;;;;;;872.72;774.50;;;;;;;;;;5028042;28;20393;-79
2021/09/13 05:32:23;;;;;;;877.10;777.10;;;;;;;;;;5022113;28;20514;-79
2021/09/13 05:34:50;;;;;;;877.70;780.42;;;;;;;;;;5027940;28;20116;-80
2021/09/13 05:37:16;;;;;;;878.97;781.63;;;;;;;;;;5015368;28;20318;-79
2021/09/13 05:39:41;;;;;;;874.70;776.83;;;;;;;;;;5002002;28;20469;-80
2021/09/13 05:42:07;;;;;;;880.40;783.30;;;;;;;;;;5027187;28;20104;-80
2021/09/13 05:44:33;;;;;;;885.58;788.28;;;;;;;;;;5021125;28;20027;-80
2021/09/13 05:47:00;;;;;;;879.38;782.20;;;;;;;;;;5023155;28;20014;-80
2021/09/13 05:49:26;;;;;;;887.50;790.10;;;;;;;;;;5007443;28;20018;-80
2021/09/13 05:51:52;;;;;;;882.70;785.25;;;;;;;;;;5009791;28;20021;-80
2021/09/13 05:54:22;;;;;;;887.70;790.00;;;;;;;;;;5027703;28;20532;-79
2021/09/13 05:56:53;;;;;;;885.17;787.85;;;;;;;;;;5008578;28;20111;-80
2021/09/13 05:59:19;;;;;;;895.70;797.95;;;;;;;;;;5013539;28;20032;-79
2021/09/13 06:01:45;;;;;;;886.13;788.83;;;;;;;;;;5024364;28;20217;-79
2021/09/13 06:04:11;;;;;;;888.45;791.15;;;;;;;;;;5023177;28;20350;-79
2021/09/13 06:06:37;;;;;;;889.78;792.20;;;;;;;;;;5027333;28;20685;-80
2021/09/13 06:09:03;;;;;;;889.40;791.72;;;;;;;;;;5026924;28;20127;-79
2021/09/13 06:11:29;;;;;;;895.03;797.55;;;;;;;;;;5026557;28;20032;-79
2021/09/13 06:13:55;;;;;;;900.25;802.53;;;;;;;;;;5014405;28;20044;-79
2021/09/13 06:16:22;;;;;;;901.15;803.05;;;;;;;;;;5026667;28;20492;-79
2021/09/13 06:18:48;;;;;;;896.95;799.22;;;;;;;;;;5014111;28;20033;-79
2021/09/13 06:21:14;;;;;;;906.88;808.80;;;;;;;;;;5006236;28;20485;-79
2021/09/13 06:23:40;;;;;;;902.60;804.72;;;;;;;;;;5026308;28;20031;-79
2021/09/13 06:26:06;;;;;;;909.60;811.25;;;;;;;;;;5009007;28;20120;-79
2021/09/13 06:28:32;;;;;;;911.17;812.88;;;;;;;;;;5027030;28;20029;-79
2021/09/13 06:30:58;;;;;;;916.85;818.17;;;;;;;;;;5024703;28;20107;-79
2021/09/13 06:33:24;;;;;;;921.80;823.13;;;;;;;;;;5027201;28;20447;-79
2021/09/13 06:35:50;;;;;;;907.00;809.17;;;;;;;;;;5014019;28;20025;-80
2021/09/13 06:38:16;;;;;;;914.58;816.35;;;;;;;;;;5026098;28;20052;-79
2021/09/13 06:40:42;;;;;;;914.67;816.67;;;;;;;;;;5013186;28;20035;-79
2021/09/13 06:43:09;;;;;;;923.35;824.85;;;;;;;;;;5016279;28;20563;-79
2021/09/13 06:45:44;;;;;;;918.15;820.05;;;;;;;;;;5004102;28;20045;-79
2021/09/13 06:48:10;;;;;;;916.17;818.30;;;;;;;;;;5004449;28;20033;-79
2021/09/13 06:50:37;;;;;;;920.75;822.58;;;;;;;;;;4997221;28;20029;-79
2021/09/13 06:53:03;;;;;;;925.60;827.40;;;;;;;;;;4989782;28;20025;-78
2021/09/13 06:55:29;;;;;;;920.13;822.00;;;;;;;;;;4989117;28;20041;-78
2021/09/13 06:57:55;;;;;;;923.08;825.10;;;;;;;;;;4989604;28;20493;-78
2021/09/13 07:00:22;;;;;;;931.95;833.65;;;;;;;;;;4989249;28;20489;-79
2021/09/13 07:02:49;;;;;;;927.13;829.13;;;;;;;;;;5004680;28;20026;-78
2021/09/13 07:05:15;;;;;;;944.40;845.63;;;;;;;;;;5003062;28;20067;-78
2021/09/13 07:07:41;;;;;;;949.55;850.55;;;;;;;;;;4988995;28;20060;-78
2021/09/13 07:10:09;;;;;;;948.33;849.50;;;;;;;;;;4989294;28;20026;-78
2021/09/13 07:12:36;;;;;;;962.05;862.63;;;;;;;;;;5006834;28;20536;-78
2021/09/13 07:15:04;;;;;;;962.97;863.47;;;;;;;;;;4984141;28;20019;-77
2021/09/13 07:17:30;;;;;;;965.92;866.47;;;;;;;;;;4983704;28;20121;-77
2021/09/13 07:19:56;;;;;;;972.85;872.92;;;;;;;;;;4988250;28;20128;-77
2021/09/13 07:22:22;;;;;;;974.97;875.10;;;;;;;;;;4997588;28;20078;-77
2021/09/13 07:24:48;;;;;;;972.22;872.88;;;;;;;;;;5001741;28;20037;-77
2021/09/13 07:27:15;;;;;;;970.80;871.40;;;;;;;;;;5003998;28;20410;-77
2021/09/13 07:29:41;;;;;;;972.08;872.63;;;;;;;;;;5001512;28;20057;-77
2021/09/13 07:32:07;;;;;;;976.45;876.75;;;;;;;;;;5002614;28;20038;-77
2021/09/13 07:34:35;;;;;;;978.83;879.08;;;;;;;;;;4987130;28;20125;-76
2021/09/13 07:37:01;;;;;;;977.72;877.95;;;;;;;;;;5008299;28;20510;-76
2021/09/13 07:39:28;;;;;;;968.58;869.30;;;;;;;;;;5009743;28;20029;-76
2021/09/13 07:41:55;;;;;;;972.35;872.80;;;;;;;;;;4993404;28;20030;-77
2021/09/13 07:44:21;;;;;;;976.85;877.13;;;;;;;;;;5011269;28;20022;-76
2021/09/13 07:46:47;;;;;;;982.75;882.65;;;;;;;;;;5013179;28;20039;-77
2021/09/13 07:49:13;;;;;;;988.67;888.42;;;;;;;;;;5012949;28;20034;-77
2021/09/13 07:51:39;;;;;;;986.55;886.53;;;;;;;;;;5011626;28;20038;-77
2021/09/13 07:54:06;;;;;;;987.83;887.65;;;;;;;;;;5033981;28;20101;-76
2021/09/13 07:56:33;;;;;;;990.40;890.30;;;;;;;;;;5020809;28;20064;-77
2021/09/13 07:59:03;;;;;;;990.78;891.03;;;;;;;;;;5029079;28;20028;-76
2021/09/13 08:01:29;;;;;;;988.95;889.03;;;;;;;;;;5034243;28;20014;-76
2021/09/13 08:03:55;;;;;;;1007.15;906.42;;;;;;;;;;5018040;28;20025;-76
2021/09/13 08:06:21;;;;;;;1010.50;909.72;;;;;;;;;;5012414;28;20091;-77
2021/09/13 08:08:47;;;;;;;1014.85;914.22;;;;;;;;;;5015938;28;20037;-76
2021/09/13 08:11:14;;;;;;;1025.80;924.42;;;;;;;;;;5027916;28;20037;-76
2021/09/13 08:13:42;;;;;;;1027.90;926.63;;;;;;;;;;5032290;28;20041;-76
2021/09/13 08:16:09;;;;;;;1028.57;927.20;;;;;;;;;;5044864;28;20026;-77
2021/09/13 08:18:35;;;;;;;1026.00;924.72;;;;;;;;;;5023328;28;20033;-76
2021/09/13 08:21:01;;;;;;;1034.22;932.63;;;;;;;;;;5026119;28;20021;-76
2021/09/13 08:23:27;;;;;;;1025.93;924.75;;;;;;;;;;5037008;28;20024;-77
2021/09/13 08:25:53;;;;;;;1040.18;938.17;;;;;;;;;;5024045;28;20038;-77
2021/09/13 08:28:20;;;;;;;1048.03;945.90;;;;;;;;;;5030087;28;20110;-77
2021/09/13 08:30:47;;;;;;;1038.05;936.50;;;;;;;;;;5022034;28;20033;-77
2021/09/13 08:33:16;;;;;;;1052.95;950.50;;;;;;;;;;5045106;28;20034;-77
2021/09/13 08:35:42;;;;;;;1042.97;941.20;;;;;;;;;;5021880;28;20040;-77
2021/09/13 08:38:08;;;;;;;1056.68;953.78;;;;;;;;;;5018044;28;20060;-77
2021/09/13 08:40:35;;;;;;;1055.82;953.25;;;;;;;;;;5036953;28;20028;-77
2021/09/13 08:43:02;;;;;;;1047.40;945.40;;;;;;;;;;5021199;28;20381;-77
2021/09/13 08:48:06;;;;;;;1053.45;950.97;;;;;;;;;;5046557;28;20037;-78
2021/09/13 08:50:53;;;;;;;1045.55;943.65;;;;;;;;;;5043673;28;20025;-78
2021/09/13 08:53:22;;;;;;;1041.25;939.53;;;;;;;;;;5022577;28;20616;-78
2021/09/13 08:55:51;;;;;;;1033.73;932.27;;;;;;;;;;5032343;28;20057;-78
2021/09/13 08:58:24;;;;;;;1039.32;937.63;;;;;;;;;;5043401;28;20044;-78
2021/09/13 09:00:51;;;;;;;1042.70;940.92;;;;;;;;;;5044883;28;20061;-78
2021/09/13 09:03:17;;;;;;;1044.03;942.20;;;;;;;;;;5017974;28;20155;-78
2021/09/13 09:05:44;;;;;;;1043.90;941.97;;;;;;;;;;5027927;28;20033;-79
2021/09/13 09:08:12;;;;;;;1046.88;944.90;;;;;;;;;;5028849;28;20048;-78
2021/09/13 09:10:38;;;;;;;1049.75;947.53;;;;;;;;;;5013352;28;20036;-79
2021/09/13 09:13:13;;;;;;;1039.22;937.65;;;;;;;;;;5036368;28;20025;-80
2021/09/13 09:15:55;;;;;;;1044.93;943.13;;;;;;;;;;5003232;28;20038;-79
2021/09/13 09:18:23;;;;;;;1043.82;942.05;;;;;;;;;;5012073;28;20125;-79
2021/09/13 09:20:51;;;;;;;1036.25;934.75;;;;;;;;;;5034794;28;20109;-80
2021/09/13 09:23:17;;;;;;;1037.85;936.08;;;;;;;;;;5020554;28;20071;-79
2021/09/13 09:25:44;;;;;;;1038.68;937.00;;;;;;;;;;5015134;28;20389;-80
2021/09/13 09:28:18;;;;;;;1036.05;934.50;;;;;;;;;;5014468;28;20025;-80
2021/09/13 09:30:46;;;;;;;1027.07;926.17;;;;;;;;;;5027365;28;20536;-81
2021/09/13 09:33:12;;;;;;;1040.75;939.03;;;;;;;;;;5025733;28;20036;-81
2021/09/13 09:35:42;;;;;;;1032.38;931.13;;;;;;;;;;5027370;28;20524;-79
2021/09/13 09:38:25;;;;;;;1031.90;930.90;;;;;;;;;;5024698;28;20500;-80
2021/09/13 09:41:02;;;;;;;1041.25;939.55;;;;;;;;;;5011343;28;20042;-81
2021/09/13 09:43:48;;;;;;;1031.25;930.08;;;;;;;;;;5007235;28;20108;-80
2021/09/13 09:46:14;;;;;;;1037.90;936.40;;;;;;;;;;5014234;28;20072;-81
2021/09/13 09:48:40;;;;;;;1039.63;938.13;;;;;;;;;;5011964;28;20045;-80
2021/09/13 09:51:27;;;;;;;1050.28;948.45;;;;;;;;;;5010878;28;20412;-82
2021/09/13 09:53:53;;;;;;;1042.97;941.28;;;;;;;;;;5021533;28;20120;-78
2021/09/13 09:56:19;;;;;;;1042.18;940.70;;;;;;;;;;5005875;28;20496;-80
2021/09/13 09:59:02;;;;;;;1048.30;946.38;;;;;;;;;;5019356;28;20106;-80
2021/09/13 10:01:38;;;;;;;1052.00;949.90;;;;;;;;;;5007262;28;20228;-79
2021/09/13 10:04:27;;;;;;;1050.93;948.83;;;;;;;;;;5014613;28;20029;-81
2021/09/13 10:06:57;;;;;;;1050.70;948.50;;;;;;;;;;5006799;28;20029;-81
2021/09/13 10:09:25;;;;;;;1050.97;949.03;;;;;;;;;;5005478;28;20033;-79
2021/09/13 10:11:53;;;;;;;1049.20;947.35;;;;;;;;;;5014740;28;20056;-82
2021/09/13 10:14:20;;;;;;;1052.85;950.65;;;;;;;;;;5016743;28;20021;-83
2021/09/13 10:16:46;;;;;;;1042.35;940.97;;;;;;;;;;4997883;28;20080;-79
2021/09/13 10:19:13;;;;;;;1043.35;941.75;;;;;;;;;;5008598;28;20451;-79
2021/09/13 10:21:39;;;;;;;1040.85;939.42;;;;;;;;;;5025020;28;20087;-80
2021/09/13 10:24:07;;;;;;;1038.45;935.38;;;;;;;;;;5018456;28;20026;-81
2021/09/13 10:26:35;;;;;;;1044.63;942.85;;;;;;;;;;5026141;28;20378;-80
2021/09/13 10:29:01;;;;;;;1040.05;938.67;;;;;;;;;;5021691;28;20102;-82
2021/09/13 10:31:46;;;;;;;1043.05;941.45;;;;;;;;;;5009009;28;20025;-81
2021/09/13 10:34:21;;;;;;;1039.20;938.03;;;;;;;;;;5011755;28;20128;-82
2021/09/13 10:36:59;;;;;;;1045.88;944.22;;;;;;;;;;5000875;28;20040;-83
2021/09/13 10:39:45;;;;;;;1054.32;952.28;;;;;;;;;;5007101;28;20394;-80
2021/09/13 10:42:25;;;;;;;1048.10;946.38;;;;;;;;;;4975328;28;20030;-80
2021/09/13 10:44:51;;;;;;;;;;;;;;;;;;5015958;28;20460;-81
2021/09/13 10:47:28;;;;;;;1034.50;933.05;;;;;;;;;;5010593;28;19984;-79
2021/09/13 10:50:13;;;;;;;1049.18;947.28;;;;;;;;;;5023908;28;20092;-80
2021/09/13 10:52:39;;;;;;;1060.68;958.20;;;;;;;;;;5006690;28;20073;-80
2021/09/13 10:55:09;;;;;;;1071.15;968.40;;;;;;;;;;5007527;28;20091;-79
2021/09/13 10:57:53;;;;;;;1073.15;970.25;;;;;;;;;;5021353;28;20091;-80
2021/09/13 11:00:38;;;;;;;1068.00;965.45;;;;;;;;;;5005297;28;20120;-81
2021/09/13 11:03:26;;;;;;;1080.25;976.95;;;;;;;;;;5023292;28;20017;-79
2021/09/13 11:06:24;;;;;;;1065.90;963.53;;;;;;;;;;4998744;28;20037;-79
2021/09/13 11:09:01;;;;;;;1060.97;958.65;;;;;;;;;;5028191;28;20025;-80
2021/09/13 11:11:32;;;;;;;1072.63;969.30;;;;;;;;;;5012383;28;20176;-80
2021/09/13 11:13:57;;;;;;;;;;;;;;;;;;5032135;28;20048;-82
2021/09/13 11:16:24;;;;;;;1050.35;948.38;;;;;;;;;;5003367;28;19921;-78
2021/09/13 11:18:51;;;;;;;1064.57;962.10;;;;;;;;;;5027742;28;20314;-82
2021/09/13 11:21:19;;;;;;;1068.35;965.80;;;;;;;;;;5029400;28;20116;-79
2021/09/13 11:23:49;;;;;;;1070.03;967.45;;;;;;;;;;5034441;28;20114;-79
2021/09/13 11:26:16;;;;;;;1072.32;969.63;;;;;;;;;;5020381;28;20084;-80
2021/09/13 11:29:12;;;;;;;1082.55;979.30;;;;;;;;;;5017381;28;20069;-79
2021/09/13 11:31:43;;;;;;;1077.95;974.78;;;;;;;;;;5014931;28;20038;-80
2021/09/13 11:34:15;;;;;;;1080.03;976.85;;;;;;;;;;5016394;28;20058;-80
2021/09/13 11:36:53;;;;;;;1084.47;981.20;;;;;;;;;;5016422;28;20021;-80
2021/09/13 11:39:20;;;;;;;1086.03;982.55;;;;;;;;;;5010022;28;20018;-80
2021/09/13 11:41:53;;;;;;;1072.80;970.00;;;;;;;;;;5033746;28;20385;-78
2021/09/13 11:44:19;;;;;;;1089.47;985.60;;;;;;;;;;5014748;28;20076;-78
2021/09/13 11:46:53;;;;;;;1078.28;975.38;;;;;;;;;;5019288;28;20033;-80
2021/09/13 11:49:23;;;;;;;1076.20;973.28;;;;;;;;;;5018028;28;20047;-81
2021/09/13 11:51:49;;;;;;;;;;;;;;;;;;5018702;28;20033;-81
2021/09/13 11:54:15;;;;;;;1061.05;958.60;;;;;;;;;;5010765;28;19936;-79
2021/09/13 11:56:47;;;;;;;1066.60;964.25;;;;;;;;;;5030858;28;20041;-80
2021/09/13 11:59:19;;;;;;;1070.32;967.63;;;;;;;;;;5025075;28;20017;-79
2021/09/13 12:01:59;;;;;;;1076.75;973.97;;;;;;;;;;5008604;28;20350;-81
2021/09/13 12:04:25;;;;;;;1071.28;968.65;;;;;;;;;;5012262;28;20021;-81
2021/09/13 12:07:08;;;;;;;1068.93;966.33;;;;;;;;;;5017691;28;20034;-80
2021/09/13 12:09:34;;;;;;;1062.10;959.70;;;;;;;;;;5032449;28;20064;-79
2021/09/13 12:12:01;;;;;;;1060.55;958.47;;;;;;;;;;5029847;28;20184;-80
2021/09/13 12:14:27;;;;;;;1057.50;955.20;;;;;;;;;;5024948;28;20029;-80
2021/09/13 12:17:12;;;;;;;1069.63;966.88;;;;;;;;;;5012458;28;20433;-80
2021/09/13 12:19:46;;;;;;;1067.43;964.75;;;;;;;;;;4998767;28;20154;-77
2021/09/13 12:22:13;;;;;;;1061.60;959.28;;;;;;;;;;5021367;28;20030;-80
2021/09/13 12:24:41;;;;;;;1061.82;959.55;;;;;;;;;;5027698;28;20029;-80
2021/09/13 12:27:19;;;;;;;1062.32;959.95;;;;;;;;;;5023539;28;20021;-79
2021/09/13 12:30:06;;;;;;;1057.57;955.60;;;;;;;;;;5011401;28;20404;-79
2021/09/13 12:32:34;;;;;;;1051.70;950.00;;;;;;;;;;5007232;28;20022;-80
2021/09/13 12:35:06;;;;;;;1050.45;948.78;;;;;;;;;;5030839;28;20032;-81
2021/09/13 12:37:40;;;;;;;1060.65;958.50;;;;;;;;;;5034973;28;20222;-79
2021/09/13 12:40:17;;;;;;;1066.20;963.70;;;;;;;;;;5031428;28;20029;-81
2021/09/13 12:42:57;;;;;;;1052.13;950.45;;;;;;;;;;5032852;28;20034;-79
2021/09/13 12:45:24;;;;;;;1050.72;948.97;;;;;;;;;;5029689;28;20579;-80
2021/09/13 12:47:58;;;;;;;1060.15;957.95;;;;;;;;;;5031461;28;20495;-81
2021/09/13 12:50:54;;;;;;;1059.10;957.00;;;;;;;;;;5029581;28;20278;-80
2021/09/13 12:53:21;;;;;;;1058.35;956.13;;;;;;;;;;5013744;28;20477;-80
2021/09/13 12:55:47;;;;;;;1066.00;963.58;;;;;;;;;;5033065;28;20315;-79
2021/09/13 12:58:27;;;;;;;1068.53;965.95;;;;;;;;;;5036500;28;20083;-80
2021/09/13 13:00:54;;;;;;;1065.38;963.17;;;;;;;;;;5010771;28;20103;-79
2021/09/13 13:03:20;;;;;;;1060.85;958.80;;;;;;;;;;5023218;28;20576;-80
2021/09/13 13:05:52;;;;;;;1061.10;959.00;;;;;;;;;;5023619;28;20100;-81
2021/09/13 13:08:18;;;;;;;1067.72;965.58;;;;;;;;;;5033099;28;20018;-79
2021/09/13 13:10:45;;;;;;;1074.28;970.78;;;;;;;;;;5020751;28;20072;-80
2021/09/13 13:13:12;;;;;;;1065.15;963.15;;;;;;;;;;5019153;28;20040;-79
2021/09/13 13:15:38;;;;;;;1063.43;961.45;;;;;;;;;;5005650;28;20033;-78
2021/09/13 13:18:09;;;;;;;1071.75;969.25;;;;;;;;;;5025071;28;20072;-81
2021/09/13 13:20:35;;;;;;;1067.65;965.22;;;;;;;;;;5029217;28;20026;-80
2021/09/13 13:23:02;;;;;;;1060.65;958.58;;;;;;;;;;5019478;28;20030;-79
2021/09/13 13:25:28;;;;;;;1069.20;966.65;;;;;;;;;;5003229;28;20039;-81
2021/09/13 13:27:54;;;;;;;1069.85;967.28;;;;;;;;;;5005339;28;20112;-81
2021/09/13 13:30:20;;;;;;;1071.20;968.70;;;;;;;;;;5007209;28;20022;-79
2021/09/13 13:32:46;;;;;;;1073.85;971.22;;;;;;;;;;5002033;28;20469;-81
2021/09/13 13:35:13;;;;;;;1068.03;965.78;;;;;;;;;;5002153;28;20030;-80
2021/09/13 13:37:40;;;;;;;1076.40;973.67;;;;;;;;;;5007619;28;20030;-80
2021/09/13 13:40:06;;;;;;;1084.40;981.33;;;;;;;;;;5021225;28;20026;-81
2021/09/13 13:42:32;;;;;;;1080.30;977.75;;;;;;;;;;5025894;28;20057;-78
2021/09/13 13:44:58;;;;;;;1084.50;981.63;;;;;;;;;;5023937;28;20041;-78
2021/09/13 13:47:25;;;;;;;1091.53;988.15;;;;;;;;;;5024810;28;20035;-78
2021/09/13 13:49:52;;;;;;;1095.03;991.47;;;;;;;;;;5026630;28;20026;-78
2021/09/13 13:52:18;;;;;;;1101.90;996.70;;;;;;;;;;5024622;28;20051;-77
2021/09/13 13:54:44;;;;;;;1097.88;993.95;;;;;;;;;;5018255;28;20493;-77
2021/09/13 13:57:11;;;;;;;1102.38;997.17;;;;;;;;;;5013461;28;20025;-77
2021/09/13 13:59:37;;;;;;;1110.95;999.90;;;;;;;;;;5013955;28;20021;-76